Time;durP1;ratioP1;P1;durP2;ratioP2;P2;SDS_P1;SDS_P2;PMS_P1;PMS_P2;Temp;Humidity;BMP_temperature;BMP_pressure;BME280_temperature;BME280_humidity;BME280_pressure;Samples;Min_cycle;Max_cycle;Signal;HPM_P1;HPM_P2
2023/03/17 00:00:50;;;;;;;3.13;2.15;;;5.10;99.90;;;;;;5045868;28;20108;-56
2023/03/17 00:03:28;;;;;;;1.85;1.23;;;5.10;99.90;;;;;;5045729;28;20499;-56
2023/03/17 00:05:55;;;;;;;2.15;1.50;;;5.10;99.90;;;;;;5035425;28;20101;-56
2023/03/17 00:08:27;;;;;;;2.47;1.50;;;5.00;99.90;;;;;;5043319;28;20021;-56
2023/03/17 00:10:52;;;;;;;3.60;2.20;;;5.00;99.90;;;;;;5046267;28;20121;-54
2023/03/17 00:13:18;;;;;;;3.45;1.75;;;5.00;99.90;;;;;;5044955;28;20100;-56
2023/03/17 00:15:47;;;;;;;2.92;1.63;;;5.00;99.90;;;;;;5044257;28;20079;-56
2023/03/17 00:18:16;;;;;;;4.93;1.63;;;5.00;99.90;;;;;;5043064;28;20070;-56
2023/03/17 00:20:42;;;;;;;1.33;1.23;;;4.90;99.90;;;;;;5044515;28;20483;-53
2023/03/17 00:23:14;;;;;;;4.68;1.98;;;4.90;99.90;;;;;;5042897;28;20142;-53
2023/03/17 00:25:42;;;;;;;2.50;1.35;;;4.90;99.90;;;;;;5044308;28;20055;-55
2023/03/17 00:28:17;;;;;;;2.50;1.70;;;4.90;99.90;;;;;;5046139;28;20523;-56
2023/03/17 00:30:43;;;;;;;4.93;2.20;;;5.00;99.90;;;;;;5044983;28;20020;-56
2023/03/17 00:33:09;;;;;;;2.60;1.90;;;5.00;99.90;;;;;;5045230;28;20051;-54
2023/03/17 00:35:37;;;;;;;2.20;1.33;;;5.00;99.90;;;;;;5045109;28;20083;-52
2023/03/17 00:38:02;;;;;;;3.38;1.77;;;5.00;99.90;;;;;;5041947;28;20017;-55
2023/03/17 00:40:29;;;;;;;3.45;1.63;;;5.00;99.90;;;;;;5041762;28;20036;-54
2023/03/17 00:42:57;;;;;;;3.17;1.80;;;5.00;99.90;;;;;;5045676;28;20083;-57
2023/03/17 00:45:24;;;;;;;5.40;1.60;;;5.00;99.90;;;;;;5040989;28;20033;-56
2023/03/17 00:47:52;;;;;;;2.47;1.95;;;5.00;99.90;;;;;;5048280;28;20017;-55
2023/03/17 00:50:23;;;;;;;4.63;2.03;;;5.00;99.90;;;;;;5040545;28;20024;-54
2023/03/17 00:52:50;;;;;;;4.35;1.50;;;5.00;99.90;;;;;;5037604;28;20070;-56
2023/03/17 00:55:17;;;;;;;2.58;1.92;;;5.00;99.90;;;;;;5046779;28;20021;-56
2023/03/17 00:57:43;;;;;;;4.70;1.80;;;5.00;99.90;;;;;;5037074;28;20088;-51
2023/03/17 01:00:25;;;;;;;2.45;1.90;;;5.00;99.90;;;;;;5042926;28;20051;-56
2023/03/17 01:02:53;;;;;;;2.42;2.00;;;5.00;99.90;;;;;;5042701;28;20030;-51
2023/03/17 01:05:20;;;;;;;3.67;1.70;;;4.90;99.90;;;;;;5036288;28;20024;-54
2023/03/17 01:07:51;;;;;;;2.05;1.60;;;4.90;99.90;;;;;;5040572;28;20021;-57
2023/03/17 01:10:21;;;;;;;2.55;1.92;;;4.90;99.90;;;;;;5039329;28;20037;-53
2023/03/17 01:12:47;;;;;;;2.25;1.58;;;4.90;99.90;;;;;;5039681;28;20098;-52
2023/03/17 01:15:13;;;;;;;2.22;1.67;;;4.90;99.90;;;;;;5045144;28;20112;-56
2023/03/17 01:17:40;;;;;;;2.60;1.60;;;4.80;99.90;;;;;;5043941;28;20087;-57
2023/03/17 01:20:10;;;;;;;3.63;2.40;;;4.80;99.90;;;;;;5044464;28;20025;-53
2023/03/17 01:22:35;;;;;;;2.13;1.70;;;4.80;99.90;;;;;;5040608;28;20491;-54
2023/03/17 01:25:01;;;;;;;2.63;1.98;;;4.80;99.90;;;;;;5046236;28;20028;-52
2023/03/17 01:27:27;;;;;;;1.60;1.40;;;4.80;99.90;;;;;;5042804;28;20437;-56
2023/03/17 01:29:54;;;;;;;2.78;1.95;;;4.70;99.90;;;;;;5036939;28;20044;-56
2023/03/17 01:32:20;;;;;;;2.20;1.73;;;4.70;99.90;;;;;;5043958;28;20022;-55
2023/03/17 01:34:46;;;;;;;3.00;1.80;;;4.60;99.90;;;;;;5044935;28;20033;-55
2023/03/17 01:37:13;;;;;;;1.95;1.40;;;4.60;99.90;;;;;;5044420;28;20396;-52
2023/03/17 01:39:39;;;;;;;3.67;1.73;;;4.60;99.90;;;;;;5039520;28;20075;-53
2023/03/17 01:42:06;;;;;;;2.13;1.88;;;4.60;99.90;;;;;;5043930;28;20483;-56
2023/03/17 01:44:32;;;;;;;2.90;2.17;;;4.50;99.90;;;;;;5045281;28;20439;-56
2023/03/17 01:46:58;;;;;;;2.00;1.80;;;4.50;99.90;;;;;;5042815;28;20030;-56
2023/03/17 01:49:41;;;;;;;2.95;1.50;;;4.40;99.90;;;;;;5044876;28;20031;-52
2023/03/17 01:52:20;;;;;;;2.08;1.83;;;4.40;99.90;;;;;;5046008;28;20025;-56
2023/03/17 01:54:49;;;;;;;3.72;2.00;;;4.40;99.90;;;;;;5038515;28;20410;-57
2023/03/17 01:57:35;;;;;;;2.08;1.27;;;4.40;99.90;;;;;;5039699;28;20028;-55
2023/03/17 02:00:11;;;;;;;3.83;1.88;;;4.30;99.90;;;;;;5043792;28;20056;-57
2023/03/17 02:02:43;;;;;;;3.35;2.10;;;4.30;99.90;;;;;;5033277;28;20570;-56
2023/03/17 02:05:12;;;;;;;5.18;2.40;;;4.30;99.90;;;;;;5037563;28;20109;-54
2023/03/17 02:07:39;;;;;;;4.60;2.20;;;4.30;99.90;;;;;;5040423;28;20037;-57
2023/03/17 02:10:07;;;;;;;3.30;2.15;;;4.30;99.90;;;;;;5047921;28;20040;-52
2023/03/17 02:12:33;;;;;;;3.22;1.98;;;4.30;99.90;;;;;;5041099;28;20411;-51
2023/03/17 02:14:59;;;;;;;2.63;2.03;;;4.30;99.90;;;;;;5045365;28;20529;-52
2023/03/17 02:17:26;;;;;;;3.47;1.92;;;4.20;99.90;;;;;;5049460;28;20132;-56
2023/03/17 02:19:52;;;;;;;2.35;1.85;;;4.20;99.90;;;;;;5039375;28;20025;-54
2023/03/17 02:22:18;;;;;;;3.85;2.28;;;4.20;99.90;;;;;;5039796;28;20602;-53
2023/03/17 02:24:54;;;;;;;2.95;2.03;;;4.20;99.90;;;;;;5046983;28;20112;-56
2023/03/17 02:27:26;;;;;;;4.22;2.03;;;4.20;99.90;;;;;;5047207;28;20025;-56
2023/03/17 02:29:52;;;;;;;2.92;1.95;;;4.20;99.90;;;;;;5041788;28;20434;-55
2023/03/17 02:32:18;;;;;;;3.80;1.92;;;4.20;99.90;;;;;;5040396;28;20170;-54
2023/03/17 02:34:46;;;;;;;2.75;2.15;;;4.20;99.90;;;;;;5040964;28;20056;-53
2023/03/17 02:37:11;;;;;;;3.83;2.20;;;4.20;99.90;;;;;;5043803;28;20029;-57
2023/03/17 02:39:37;;;;;;;3.45;2.10;;;4.10;99.90;;;;;;5046352;28;20499;-53
2023/03/17 02:42:04;;;;;;;4.40;2.40;;;4.10;99.90;;;;;;5044991;28;20036;-52
2023/03/17 02:44:30;;;;;;;2.08;1.80;;;4.10;99.90;;;;;;5040084;28;20075;-53
2023/03/17 02:46:56;;;;;;;2.28;2.05;;;4.10;99.90;;;;;;5046432;28;20032;-52
2023/03/17 02:49:22;;;;;;;3.78;2.40;;;4.10;99.90;;;;;;5040104;28;20029;-54
2023/03/17 02:51:48;;;;;;;2.83;2.10;;;4.10;99.90;;;;;;5042452;28;20025;-55
2023/03/17 02:54:13;;;;;;;3.20;2.33;;;4.10;99.90;;;;;;5046962;28;20361;-55
2023/03/17 02:56:39;;;;;;;3.10;1.90;;;4.10;99.90;;;;;;5045927;28;20029;-57
2023/03/17 02:59:06;;;;;;;3.80;2.22;;;4.10;99.90;;;;;;5040189;28;20032;-55
2023/03/17 03:01:32;;;;;;;3.60;2.65;;;4.20;99.90;;;;;;5041463;28;20021;-55
2023/03/17 03:03:58;;;;;;;2.78;2.15;;;4.10;99.90;;;;;;5045184;28;20024;-56
2023/03/17 03:06:24;;;;;;;3.50;1.90;;;4.10;99.90;;;;;;5046640;28;20029;-52
2023/03/17 03:08:50;;;;;;;2.70;2.20;;;4.10;99.90;;;;;;5049955;28;20505;-54
2023/03/17 03:11:17;;;;;;;2.50;2.00;;;4.10;99.90;;;;;;5038324;28;20029;-56
2023/03/17 03:13:42;;;;;;;3.47;2.30;;;4.20;99.90;;;;;;5048289;28;20059;-52
2023/03/17 03:16:08;;;;;;;3.70;2.17;;;4.20;99.90;;;;;;5038638;28;20060;-51
2023/03/17 03:18:34;;;;;;;4.90;2.53;;;4.20;99.90;;;;;;5040369;28;20040;-56
2023/03/17 03:21:00;;;;;;;4.95;2.17;;;4.20;99.90;;;;;;5039697;28;20085;-57
2023/03/17 03:23:26;;;;;;;4.07;1.83;;;4.10;99.90;;;;;;5045788;28;20106;-52
2023/03/17 03:25:51;;;;;;;5.97;2.28;;;4.20;99.90;;;;;;5048402;28;20071;-56
2023/03/17 03:28:17;;;;;;;2.20;2.00;;;4.20;99.90;;;;;;5045444;28;20029;-53
2023/03/17 03:30:44;;;;;;;4.43;2.30;;;4.20;99.90;;;;;;5029403;28;20037;-52
2023/03/17 03:33:11;;;;;;;3.65;2.67;;;4.20;99.90;;;;;;5042830;28;20024;-52
2023/03/17 03:35:37;;;;;;;7.00;3.08;;;4.20;99.90;;;;;;5039705;28;20034;-53
2023/03/17 03:38:03;;;;;;;3.20;2.33;;;4.20;99.90;;;;;;5047415;28;20025;-53
2023/03/17 03:40:28;;;;;;;2.35;2.15;;;4.20;99.90;;;;;;5048119;28;20115;-54
2023/03/17 03:42:54;;;;;;;2.25;1.70;;;4.20;99.90;;;;;;5047108;28;20067;-56
2023/03/17 03:45:20;;;;;;;4.53;2.50;;;4.20;99.90;;;;;;5042911;28;20028;-54
2023/03/17 03:47:45;;;;;;;3.47;2.30;;;4.20;99.90;;;;;;5042940;28;20025;-55
2023/03/17 03:50:12;;;;;;;3.80;2.50;;;4.20;99.90;;;;;;5041257;28;20525;-54
2023/03/17 03:52:37;;;;;;;5.07;2.78;;;4.20;99.90;;;;;;5045262;28;20028;-53
2023/03/17 03:55:03;;;;;;;2.72;2.25;;;4.20;99.90;;;;;;5049395;28;20064;-56
2023/03/17 03:57:29;;;;;;;3.38;2.65;;;4.20;99.90;;;;;;5036413;28;20033;-56
2023/03/17 03:59:55;;;;;;;4.22;2.38;;;4.10;99.90;;;;;;5049037;28;20036;-57
2023/03/17 04:02:20;;;;;;;2.85;2.40;;;4.20;99.90;;;;;;5049125;28;20031;-55
2023/03/17 04:04:46;;;;;;;3.78;2.10;;;4.20;99.90;;;;;;5038982;28;20439;-57
2023/03/17 04:07:12;;;;;;;2.33;1.95;;;4.20;99.90;;;;;;5038565;28;20112;-54
2023/03/17 04:09:38;;;;;;;2.97;2.30;;;4.20;99.90;;;;;;5043598;28;20029;-53
2023/03/17 04:12:04;;;;;;;3.03;2.83;;;4.10;99.90;;;;;;5041371;28;20029;-53
2023/03/17 04:14:29;;;;;;;3.22;2.30;;;4.10;99.90;;;;;;5039285;28;20064;-56
2023/03/17 04:16:55;;;;;;;2.75;2.40;;;4.10;99.90;;;;;;5046289;28;20095;-56
2023/03/17 04:19:20;;;;;;;2.85;2.25;;;4.00;99.90;;;;;;5046043;28;20032;-56
2023/03/17 04:21:47;;;;;;;2.50;2.22;;;4.00;99.90;;;;;;5037785;28;20021;-53
2023/03/17 04:24:13;;;;;;;4.63;2.58;;;4.00;99.90;;;;;;5040499;28;20033;-52
2023/03/17 04:26:40;;;;;;;4.53;2.45;;;4.00;99.90;;;;;;5042003;28;20392;-55
2023/03/17 04:29:07;;;;;;;3.90;2.53;;;4.00;99.90;;;;;;5046458;28;20113;-55
2023/03/17 04:31:34;;;;;;;2.80;2.35;;;3.90;99.90;;;;;;5046002;28;20028;-54
2023/03/17 04:33:59;;;;;;;3.80;2.80;;;3.90;99.90;;;;;;5043260;28;20025;-54
2023/03/17 04:36:25;;;;;;;3.63;2.67;;;3.90;99.90;;;;;;5043629;28;20025;-56
2023/03/17 04:38:51;;;;;;;2.88;2.60;;;3.90;99.90;;;;;;5046003;28;20100;-55
2023/03/17 04:41:17;;;;;;;4.05;2.45;;;4.00;99.90;;;;;;5045500;28;20167;-56
2023/03/17 04:43:42;;;;;;;2.92;2.33;;;4.00;99.90;;;;;;5045021;28;20037;-55
2023/03/17 04:46:08;;;;;;;2.55;2.17;;;3.90;99.90;;;;;;5041583;28;20043;-54
2023/03/17 04:48:34;;;;;;;3.67;2.78;;;3.90;99.90;;;;;;5046917;28;20040;-54
2023/03/17 04:51:00;;;;;;;5.07;2.58;;;4.00;99.90;;;;;;5040046;28;20035;-55
2023/03/17 04:53:26;;;;;;;4.13;2.70;;;3.90;99.90;;;;;;5048166;28;20086;-55
2023/03/17 04:55:51;;;;;;;3.40;2.63;;;3.90;99.90;;;;;;5042530;28;20381;-52
2023/03/17 04:58:17;;;;;;;3.72;3.15;;;3.90;99.90;;;;;;5044398;28;20435;-50
2023/03/17 05:00:43;;;;;;;3.55;2.78;;;3.90;99.90;;;;;;5040875;28;20025;-53
2023/03/17 05:03:09;;;;;;;4.07;3.08;;;3.90;99.90;;;;;;5039369;28;20029;-54
2023/03/17 05:05:35;;;;;;;3.15;2.85;;;4.00;99.90;;;;;;5045109;28;20507;-50
2023/03/17 05:08:00;;;;;;;3.58;2.70;;;4.00;99.90;;;;;;5040408;28;20494;-52
2023/03/17 05:10:26;;;;;;;5.15;3.10;;;4.00;99.90;;;;;;5045476;28;20033;-51
2023/03/17 05:12:51;;;;;;;3.45;2.70;;;4.00;99.90;;;;;;5043808;28;20028;-55
2023/03/17 05:15:17;;;;;;;4.93;3.17;;;4.00;99.90;;;;;;5044786;28;20037;-57
2023/03/17 05:17:43;;;;;;;5.68;3.05;;;4.00;99.90;;;;;;5046397;28;20064;-54
2023/03/17 05:20:09;;;;;;;5.85;3.35;;;4.00;99.90;;;;;;5036661;28;20025;-50
2023/03/17 05:22:36;;;;;;;4.30;2.58;;;4.00;99.90;;;;;;5043946;28;20017;-55
2023/03/17 05:25:02;;;;;;;3.00;2.65;;;3.90;99.90;;;;;;5038122;28;20053;-54
2023/03/17 05:27:28;;;;;;;3.85;2.63;;;3.90;99.90;;;;;;5047617;28;20049;-54
2023/03/17 05:29:54;;;;;;;3.78;2.47;;;3.90;99.90;;;;;;5038284;28;20029;-53
2023/03/17 05:32:20;;;;;;;4.80;3.20;;;3.90;99.90;;;;;;5046031;28;20098;-53
2023/03/17 05:34:46;;;;;;;3.70;2.97;;;3.90;99.90;;;;;;5042146;28;20025;-54
2023/03/17 05:37:13;;;;;;;3.97;3.25;;;3.90;99.90;;;;;;5042723;28;20025;-56
2023/03/17 05:39:38;;;;;;;5.53;3.05;;;3.80;99.90;;;;;;5042304;28;20018;-54
2023/03/17 05:42:05;;;;;;;4.05;3.00;;;3.80;99.90;;;;;;5046919;28;20021;-54
2023/03/17 05:44:30;;;;;;;3.70;2.90;;;3.80;99.90;;;;;;5044063;28;20048;-54
2023/03/17 05:46:58;;;;;;;3.65;2.65;;;3.80;99.90;;;;;;5042919;28;20115;-56
2023/03/17 05:49:24;;;;;;;4.28;2.83;;;3.80;99.90;;;;;;5043074;28;20468;-55
2023/03/17 05:51:50;;;;;;;4.40;3.25;;;3.80;99.90;;;;;;5048996;28;20025;-55
2023/03/17 05:54:16;;;;;;;4.35;3.08;;;3.80;99.90;;;;;;5042087;28;20021;-55
2023/03/17 05:56:47;;;;;;;6.00;3.63;;;3.80;99.90;;;;;;5050091;28;20040;-59
2023/03/17 05:59:17;;;;;;;5.60;3.00;;;3.80;99.90;;;;;;5045792;28;20488;-56
2023/03/17 06:01:43;;;;;;;4.43;2.70;;;3.80;99.90;;;;;;5044685;28;20024;-55
2023/03/17 06:04:09;;;;;;;4.25;3.00;;;3.80;99.90;;;;;;5043973;28;20030;-56
2023/03/17 06:06:35;;;;;;;3.50;2.80;;;3.90;99.90;;;;;;5043790;28;20029;-56
2023/03/17 06:09:01;;;;;;;4.18;3.28;;;3.90;99.90;;;;;;5046492;28;20028;-56
2023/03/17 06:11:27;;;;;;;4.97;3.20;;;3.90;99.90;;;;;;5050759;28;20578;-56
2023/03/17 06:13:52;;;;;;;4.13;3.13;;;4.00;99.90;;;;;;5043819;28;20113;-54
2023/03/17 06:16:18;;;;;;;4.78;3.33;;;4.00;99.90;;;;;;5041573;28;20115;-50
2023/03/17 06:18:44;;;;;;;4.65;3.30;;;4.00;99.90;;;;;;5048336;28;20048;-56
2023/03/17 06:21:11;;;;;;;4.40;3.33;;;4.00;99.90;;;;;;5039681;28;20018;-51
2023/03/17 06:23:37;;;;;;;5.55;3.55;;;4.00;99.90;;;;;;5050062;28;20471;-54
2023/03/17 06:26:03;;;;;;;4.38;3.17;;;4.00;99.90;;;;;;5046367;28;20031;-57
2023/03/17 06:28:28;;;;;;;3.92;3.17;;;4.00;99.90;;;;;;5048410;28;20407;-52
2023/03/17 06:30:54;;;;;;;7.90;3.63;;;4.10;99.90;;;;;;5048944;28;20039;-55
2023/03/17 06:33:20;;;;;;;4.05;3.10;;;4.10;99.90;;;;;;5044706;28;20489;-53
2023/03/17 06:35:46;;;;;;;5.50;3.78;;;4.10;99.90;;;;;;5044828;28;20021;-56
2023/03/17 06:38:12;;;;;;;4.97;3.28;;;4.20;99.90;;;;;;5048405;28;20036;-57
2023/03/17 06:40:38;;;;;;;5.13;3.50;;;4.20;99.90;;;;;;5045721;28;20044;-56
2023/03/17 06:43:03;;;;;;;4.70;3.33;;;4.30;99.90;;;;;;5037712;28;20029;-51
2023/03/17 06:45:31;;;;;;;4.47;3.13;;;4.30;99.90;;;;;;5042354;28;20445;-53
2023/03/17 06:47:57;;;;;;;4.63;3.38;;;4.30;99.90;;;;;;5048665;28;20052;-52
2023/03/17 06:50:22;;;;;;;4.68;3.72;;;4.30;99.90;;;;;;5046520;28;20073;-53
2023/03/17 06:52:48;;;;;;;3.70;2.92;;;4.30;99.90;;;;;;5047340;28;20044;-55
2023/03/17 06:55:14;;;;;;;3.63;3.00;;;4.40;99.90;;;;;;5049583;28;20278;-56
2023/03/17 06:57:40;;;;;;;5.03;4.03;;;4.40;99.90;;;;;;5043998;28;20039;-54
2023/03/17 07:00:07;;;;;;;5.68;2.95;;;4.40;99.90;;;;;;5034176;28;20022;-54
2023/03/17 07:02:33;;;;;;;5.30;3.65;;;4.50;99.90;;;;;;5043459;28;20033;-54
2023/03/17 07:05:00;;;;;;;5.60;3.72;;;4.50;99.90;;;;;;5040914;28;20031;-56
2023/03/17 07:07:28;;;;;;;5.45;3.40;;;4.60;99.90;;;;;;5050880;28;20471;-55
2023/03/17 07:09:54;;;;;;;6.75;3.72;;;4.70;99.90;;;;;;5042885;28;20496;-57
2023/03/17 07:12:20;;;;;;;4.85;3.63;;;4.80;99.90;;;;;;5043590;28;20029;-53
2023/03/17 07:14:46;;;;;;;5.57;3.88;;;4.90;99.90;;;;;;5039356;28;20025;-56
2023/03/17 07:17:13;;;;;;;4.72;3.30;;;5.00;99.90;;;;;;5050020;28;20078;-54
2023/03/17 07:19:39;;;;;;;4.75;3.28;;;5.10;99.90;;;;;;5043692;28;20446;-57
2023/03/17 07:22:05;;;;;;;4.28;3.80;;;5.20;99.90;;;;;;5050325;28;20021;-55
2023/03/17 07:24:31;;;;;;;4.97;3.40;;;5.20;99.90;;;;;;5048965;28;20028;-55
2023/03/17 07:26:56;;;;;;;5.35;3.55;;;5.20;99.90;;;;;;5046035;28;20423;-53
2023/03/17 07:29:22;;;;;;;5.57;3.50;;;5.30;99.90;;;;;;5046227;28;20483;-53
2023/03/17 07:31:48;;;;;;;4.72;3.42;;;5.40;99.90;;;;;;5041892;28;20032;-57
2023/03/17 07:34:15;;;;;;;4.97;3.60;;;5.40;99.90;;;;;;5040909;28;20025;-56
2023/03/17 07:36:41;;;;;;;4.75;3.60;;;5.50;99.90;;;;;;5048107;28;20025;-54
2023/03/17 07:39:07;;;;;;;5.70;3.67;;;5.60;99.90;;;;;;5045560;28;20017;-50
2023/03/17 07:41:33;;;;;;;5.75;3.95;;;5.60;99.90;;;;;;5047303;28;20387;-54
2023/03/17 07:43:59;;;;;;;4.50;3.08;;;5.70;99.90;;;;;;5046361;28;20018;-57
2023/03/17 07:46:25;;;;;;;5.65;3.58;;;5.80;99.90;;;;;;5040301;28;20025;-55
2023/03/17 07:48:50;;;;;;;5.13;4.32;;;5.80;99.90;;;;;;5051489;28;20029;-56
2023/03/17 07:51:20;;;;;;;5.70;3.72;;;5.90;99.90;;;;;;5041634;28;20104;-56
2023/03/17 07:53:46;;;;;;;4.13;3.72;;;5.90;99.90;;;;;;5049568;28;20465;-55
2023/03/17 07:56:12;;;;;;;4.25;3.45;;;6.10;99.90;;;;;;5040683;28;20037;-56
2023/03/17 07:58:37;;;;;;;4.78;3.45;;;6.20;99.90;;;;;;5046774;28;20086;-58
2023/03/17 08:01:03;;;;;;;5.35;3.58;;;6.30;99.90;;;;;;5040620;28;20115;-57
2023/03/17 08:03:30;;;;;;;5.40;3.72;;;6.50;99.90;;;;;;5046975;28;20025;-57
2023/03/17 08:05:56;;;;;;;5.07;3.65;;;6.70;99.90;;;;;;5044533;28;20055;-54
2023/03/17 08:08:23;;;;;;;5.53;3.55;;;6.80;99.90;;;;;;5049087;28;20028;-56
2023/03/17 08:10:50;;;;;;;6.03;3.58;;;6.90;99.90;;;;;;5043521;28;20078;-58
2023/03/17 08:13:16;;;;;;;4.03;3.58;;;7.10;99.90;;;;;;5038515;28;20021;-56
2023/03/17 08:15:42;;;;;;;4.28;3.33;;;7.30;99.90;;;;;;5043507;28;20403;-53
2023/03/17 08:18:08;;;;;;;5.03;3.45;;;7.50;99.90;;;;;;5041229;28;20025;-57
2023/03/17 08:20:34;;;;;;;4.90;3.67;;;7.80;99.90;;;;;;5046800;28;20028;-55
2023/03/17 08:23:00;;;;;;;4.40;3.15;;;8.10;99.90;;;;;;5049404;28;20021;-57
2023/03/17 08:25:26;;;;;;;4.82;3.35;;;8.30;99.90;;;;;;5049446;28;20025;-54
2023/03/17 08:27:52;;;;;;;3.97;3.10;;;8.50;99.90;;;;;;5043312;28;20021;-55
2023/03/17 08:30:19;;;;;;;4.82;3.00;;;8.50;99.90;;;;;;5045423;28;20493;-60
2023/03/17 08:32:46;;;;;;;4.10;3.70;;;8.50;99.90;;;;;;5049140;28;20045;-57
2023/03/17 08:35:14;;;;;;;3.58;3.28;;;8.40;99.90;;;;;;5045274;28;20383;-57
2023/03/17 08:37:44;;;;;;;4.25;3.10;;;8.40;99.90;;;;;;5047832;28;20136;-57
2023/03/17 08:40:11;;;;;;;4.82;3.05;;;8.40;99.90;;;;;;5044763;28;20024;-55
2023/03/17 08:42:37;;;;;;;4.85;3.35;;;8.50;99.90;;;;;;5047291;28;20277;-57
2023/03/17 08:45:05;;;;;;;4.85;3.30;;;8.50;99.90;;;;;;5039140;28;20036;-57
2023/03/17 08:47:32;;;;;;;6.10;4.13;;;8.60;99.90;;;;;;5039142;28;20454;-59
2023/03/17 08:49:59;;;;;;;3.78;3.38;;;8.60;99.90;;;;;;5049382;28;20513;-56
2023/03/17 08:52:26;;;;;;;4.57;3.45;;;8.60;99.90;;;;;;5043793;28;20024;-56
2023/03/17 08:54:52;;;;;;;4.32;3.40;;;8.70;99.90;;;;;;5048367;28;20104;-57
2023/03/17 08:57:18;;;;;;;5.05;3.65;;;8.70;99.90;;;;;;5036498;28;20029;-54
2023/03/17 08:59:46;;;;;;;8.90;3.67;;;8.80;99.90;;;;;;5048382;28;20031;-58
2023/03/17 09:02:13;;;;;;;4.25;2.80;;;9.10;99.90;;;;;;5036625;28;20025;-57
2023/03/17 09:04:39;;;;;;;5.03;3.40;;;9.40;99.90;;;;;;5046958;28;20017;-58
2023/03/17 09:07:05;;;;;;;5.45;3.22;;;9.60;99.90;;;;;;5042100;28;20553;-56
2023/03/17 09:09:33;;;;;;;4.22;2.95;;;9.90;99.90;;;;;;5045627;28;20025;-56
2023/03/17 09:11:59;;;;;;;4.50;3.03;;;10.20;99.90;;;;;;5046106;28;20180;-59
2023/03/17 09:14:25;;;;;;;3.15;2.58;;;10.30;99.90;;;;;;5035562;28;20026;-58
2023/03/17 09:16:51;;;;;;;4.13;2.92;;;10.40;99.90;;;;;;5043747;28;20052;-54
2023/03/17 09:19:17;;;;;;;5.20;3.28;;;10.30;99.90;;;;;;5047324;28;20021;-57
2023/03/17 09:21:43;;;;;;;4.50;3.10;;;10.40;99.90;;;;;;5043087;28;20174;-53
2023/03/17 09:24:09;;;;;;;4.68;2.83;;;10.40;99.90;;;;;;5045139;28;20017;-57
2023/03/17 09:26:35;;;;;;;3.00;2.70;;;10.60;99.90;;;;;;5043573;28;20052;-57
2023/03/17 09:29:02;;;;;;;5.15;3.08;;;10.90;99.90;;;;;;5044635;28;20036;-57
2023/03/17 09:31:27;;;;;;;4.90;3.65;;;11.10;99.90;;;;;;5047301;28;20406;-58
2023/03/17 09:33:53;;;;;;;3.97;2.58;;;11.40;99.90;;;;;;5039400;28;20036;-57
2023/03/17 09:36:19;;;;;;;4.25;2.90;;;11.80;99.90;;;;;;5046617;28;20039;-57
2023/03/17 09:38:45;;;;;;;4.28;3.30;;;12.00;99.90;;;;;;5039874;28;20032;-57
2023/03/17 09:41:22;;;;;;;3.17;2.58;;;12.20;98.90;;;;;;5039417;28;20021;-58
2023/03/17 09:44:06;;;;;;;4.40;2.90;;;12.20;99.50;;;;;;5038931;28;20094;-58
2023/03/17 09:47:01;;;;;;;3.65;3.03;;;12.40;99.80;;;;;;5043250;28;20443;-58
2023/03/17 09:49:54;;;;;;;2.53;2.33;;;12.50;99.00;;;;;;5047422;28;20547;-54
2023/03/17 09:52:29;;;;;;;2.78;2.20;;;12.60;98.90;;;;;;5044308;28;20271;-57
2023/03/17 09:54:56;;;;;;;4.63;3.05;;;12.80;99.00;;;;;;5048781;28;20096;-58
2023/03/17 09:57:29;;;;;;;3.38;2.50;;;12.80;97.60;;;;;;5046804;28;20028;-56
2023/03/17 10:00:13;;;;;;;3.47;2.50;;;12.80;97.50;;;;;;5046823;28;20116;-59
2023/03/17 10:02:39;;;;;;;3.10;2.42;;;12.80;97.70;;;;;;5040457;28;20120;-58
2023/03/17 10:05:19;;;;;;;5.00;2.90;;;12.90;96.10;;;;;;5046073;28;20028;-57
2023/03/17 10:07:53;;;;;;;3.28;2.47;;;12.90;96.50;;;;;;5045834;28;20037;-54
2023/03/17 10:10:31;;;;;;;3.38;2.50;;;12.90;97.10;;;;;;5039089;28;20021;-58
2023/03/17 10:13:12;;;;;;;5.20;2.42;;;12.90;97.10;;;;;;5038056;28;20032;-57
2023/03/17 10:15:58;;;;;;;3.97;2.47;;;13.00;96.10;;;;;;5038644;28;20082;-58
2023/03/17 10:18:29;;;;;;;;;;;13.00;96.20;;;;;;5043425;28;20113;-56
2023/03/17 10:21:05;;;;;;;2.55;1.85;;;13.00;96.20;;;;;;5037379;28;19995;-56
2023/03/17 10:23:34;;;;;;;3.33;2.35;;;13.10;96.90;;;;;;5042067;28;20027;-55
2023/03/17 10:26:11;;;;;;;4.38;2.83;;;13.10;95.90;;;;;;5039006;28;20053;-58
2023/03/17 10:28:37;;;;;;;2.90;2.38;;;13.10;95.80;;;;;;5045025;28;20021;-58
2023/03/17 10:31:27;;;;;;;4.38;2.65;;;13.10;95.70;;;;;;5035589;28;20058;-58
2023/03/17 10:33:55;;;;;;;5.18;2.60;;;13.10;95.00;;;;;;5046702;28;20029;-59
2023/03/17 10:36:38;;;;;;;4.40;2.70;;;13.10;95.00;;;;;;5049760;28;20024;-58
2023/03/17 10:39:06;;;;;;;3.17;2.15;;;13.00;96.00;;;;;;5041579;28;20014;-56
2023/03/17 10:41:35;;;;;;;3.13;2.30;;;12.90;95.90;;;;;;5046688;28;20357;-57
2023/03/17 10:44:07;;;;;;;2.80;2.28;;;12.90;96.90;;;;;;5045654;28;20017;-58
2023/03/17 10:46:32;;;;;;;2.28;1.98;;;13.00;94.90;;;;;;5043187;28;20036;-59
2023/03/17 10:49:15;;;;;;;4.45;3.20;;;13.00;96.20;;;;;;5050781;28;20394;-56
2023/03/17 10:51:45;;;;;;;3.42;2.38;;;13.10;96.10;;;;;;5047360;28;20029;-59
2023/03/17 10:54:17;;;;;;;3.75;2.17;;;13.10;96.00;;;;;;5050279;28;20025;-56
2023/03/17 10:56:47;;;;;;;2.90;2.45;;;13.20;95.70;;;;;;5045631;28;20375;-58
2023/03/17 10:59:26;;;;;;;5.85;3.10;;;13.30;95.60;;;;;;5048845;28;20040;-58
2023/03/17 11:01:56;;;;;;;4.55;2.88;;;13.40;95.30;;;;;;5040039;28;20088;-58
2023/03/17 11:04:37;;;;;;;3.17;2.40;;;13.50;96.20;;;;;;5046378;28;20078;-58
2023/03/17 11:07:30;;;;;;;3.08;2.20;;;13.60;95.40;;;;;;5044358;28;20100;-59
2023/03/17 11:09:59;;;;;;;2.97;2.60;;;13.70;95.80;;;;;;5046518;28;20017;-57
2023/03/17 11:12:28;;;;;;;3.25;2.33;;;13.90;95.30;;;;;;5049547;28;20029;-58
2023/03/17 11:14:58;;;;;;;4.25;2.83;;;14.10;94.70;;;;;;5045578;28;20603;-59
2023/03/17 11:17:56;;;;;;;4.95;2.13;;;14.30;93.10;;;;;;5047879;28;20025;-58
2023/03/17 11:20:31;;;;;;;5.15;2.35;;;14.50;94.60;;;;;;5046396;28;20049;-59
2023/03/17 11:23:14;;;;;;;2.53;1.85;;;14.70;92.40;;;;;;5039204;28;20032;-58
2023/03/17 11:25:43;;;;;;;2.95;1.98;;;14.90;93.30;;;;;;5045518;28;20029;-59
2023/03/17 11:28:27;;;;;;;2.97;2.10;;;15.00;91.70;;;;;;5041368;28;20035;-57
2023/03/17 11:31:14;;;;;;;3.08;2.05;;;15.00;91.70;;;;;;5042342;28;20025;-59
2023/03/17 11:34:01;;;;;;;7.22;2.63;;;15.00;91.70;;;;;;5040683;28;20460;-55
2023/03/17 11:36:51;;;;;;;3.15;2.05;;;15.10;90.40;;;;;;5041728;28;20523;-56
2023/03/17 11:39:26;;;;;;;3.70;2.05;;;15.00;90.80;;;;;;5046001;28;20021;-56
2023/03/17 11:42:30;;;;;;;4.53;2.50;;;15.00;91.30;;;;;;5045905;28;20021;-57
2023/03/17 11:45:08;;;;;;;3.22;2.00;;;14.90;89.60;;;;;;5037068;28;20033;-54
2023/03/17 11:47:52;;;;;;;2.47;1.95;;;14.90;91.40;;;;;;5047959;28;20029;-58
2023/03/17 11:50:31;;;;;;;2.80;2.05;;;14.90;91.60;;;;;;5046054;28;20029;-57
2023/03/17 11:53:23;;;;;;;6.13;1.92;;;15.00;91.30;;;;;;5046646;28;20424;-58
2023/03/17 11:56:17;;;;;;;3.03;1.92;;;15.10;91.80;;;;;;5045836;28;20685;-59
2023/03/17 11:58:53;;;;;;;2.78;1.70;;;15.10;91.80;;;;;;5047356;28;20033;-60
2023/03/17 12:01:26;;;;;;;6.75;1.90;;;15.20;90.80;;;;;;5044444;28;20021;-59
2023/03/17 12:04:17;;;;;;;2.10;1.60;;;15.20;91.10;;;;;;5041247;28;20041;-58
2023/03/17 12:06:51;;;;;;;2.47;1.92;;;15.30;91.20;;;;;;5049403;28;20025;-59
2023/03/17 12:09:36;;;;;;;2.20;2.00;;;15.30;89.60;;;;;;5047546;28;20384;-57
2023/03/17 12:12:03;;;;;;;2.20;1.88;;;15.30;90.80;;;;;;5043685;28;20400;-58
2023/03/17 12:14:40;;;;;;;2.05;1.63;;;15.30;88.50;;;;;;5049108;28;20028;-59
2023/03/17 12:17:17;;;;;;;3.70;1.80;;;15.30;90.10;;;;;;5050089;28;20494;-58
2023/03/17 12:19:54;;;;;;;3.08;2.30;;;15.30;90.40;;;;;;5046469;28;20424;-60
2023/03/17 12:22:27;;;;;;;3.17;2.40;;;15.30;90.10;;;;;;5046001;28;20403;-59
2023/03/17 12:25:08;;;;;;;4.32;2.40;;;15.30;90.00;;;;;;5040819;28;20076;-58
2023/03/17 12:28:00;;;;;;;4.45;2.20;;;15.30;90.10;;;;;;5045564;28;20103;-59
2023/03/17 12:30:48;;;;;;;2.72;2.15;;;15.30;91.00;;;;;;5046215;28;20029;-56
2023/03/17 12:33:26;;;;;;;3.08;1.83;;;15.30;90.10;;;;;;5039202;28;20464;-57
2023/03/17 12:35:51;;;;;;;2.85;1.88;;;15.30;88.40;;;;;;5043466;28;20441;-59
2023/03/17 12:38:26;;;;;;;2.22;2.00;;;15.40;90.60;;;;;;5049830;28;20029;-59
2023/03/17 12:41:13;;;;;;;3.28;1.70;;;15.30;90.80;;;;;;5040953;28;20025;-58
2023/03/17 12:43:57;;;;;;;3.65;1.85;;;15.40;90.20;;;;;;5035372;28;20060;-59
2023/03/17 12:46:38;;;;;;;4.60;2.10;;;15.40;89.30;;;;;;5040279;28;20109;-57
2023/03/17 12:49:16;;;;;;;3.33;2.00;;;15.40;90.30;;;;;;5041444;28;20383;-57
2023/03/17 12:52:09;;;;;;;3.15;1.80;;;15.50;89.80;;;;;;5044316;28;20098;-59
2023/03/17 12:54:36;;;;;;;2.65;1.98;;;15.50;88.40;;;;;;5047966;28;20017;-56
2023/03/17 12:57:11;;;;;;;3.78;1.85;;;15.60;88.70;;;;;;5043260;28;20451;-59
2023/03/17 12:59:41;;;;;;;5.65;1.27;;;15.60;90.20;;;;;;5046818;28;20766;-60
2023/03/17 13:02:31;;;;;;;3.70;1.77;;;15.70;90.20;;;;;;5043803;28;20091;-58
2023/03/17 13:05:01;;;;;;;3.25;1.42;;;15.70;87.60;;;;;;5045791;28;20021;-59
2023/03/17 13:07:48;;;;;;;1.98;1.55;;;15.80;87.90;;;;;;5048960;28;20060;-59